Antonio Ramos — CUCT9 — position and weather

sailwx.info

Track history (hours):
 
Tides and Currents Weather Stations Pressure Air Temp Water Temp Dewpoint Dewpoint Depression Visibility Wind Speed Wind Dir Waves Ship Positions

Antonio Ramos

Last reported at 2017-Nov-15 16:32 UTC. Time now 2017-Nov-24 18:42 UTC.
Position N 38°26' W 009°07'.
Warning: this ship's position is 9 days out of date.

Length 15 m.

Type: Fishing. MMSI: 263406740.

Date/timePositionNaut miles runAvg speedWind from/ knotsBaromVisibWave heightAir tempDewpointWater temp
2017-Nov-15 16:32N 38°26' W 009°07'0 0.0
2017-Nov-15 16:30N 38°26' W 009°07'0 0.0
2017-Nov-15 16:01N 38°26' W 009°07'0 0.0
2017-Nov-15 15:30N 38°26' W 009°07'0 0.0
2017-Nov-15 15:00N 38°26' W 009°07'  
2017-Nov-07 07:02N 38°26' W 009°07'0 0.0
2017-Nov-07 07:00N 38°26' W 009°07'3 5.3
2017-Nov-07 06:30N 38°25' W 009°09'3 6.6
2017-Nov-07 06:00N 38°24' W 009°14'3 7.1
2017-Nov-07 05:30N 38°26' W 009°17'4 7.5
2017-Nov-07 04:59N 38°29' W 009°21'4 7.9
2017-Nov-07 04:29N 38°32' W 009°23'4 7.8
2017-Nov-07 04:01N 38°36' W 009°26'4 7.5
2017-Nov-07 03:31N 38°39' W 009°28'4 7.4
2017-Nov-07 03:01N 38°42' W 009°31'4 7.2
2017-Nov-07 02:31N 38°46' W 009°32'3 6.8
2017-Nov-07 02:01N 38°49' W 009°32'4 7.1
2017-Nov-07 01:31N 38°52' W 009°32'4 7.3
2017-Nov-07 01:00N 38°56' W 009°31'4 7.3
2017-Nov-07 00:31N 38°60' W 009°30'4 7.4
2017-Nov-07 00:01N 39°03' W 009°29'4 7.6
2017-Nov-06 23:30N 39°07' W 009°29'4 7.6
2017-Nov-06 23:00N 39°11' W 009°27'4 7.6
2017-Nov-06 22:30N 39°14' W 009°26'  
Track history (hours):
 
Tides and Currents Weather Stations Pressure Air Temp Water Temp Dewpoint Dewpoint Depression Visibility Wind Speed Wind Dir Waves Ship Positions

Antonio Ramos

Last reported at 2017-Nov-15 16:32 UTC. Time now 2017-Nov-24 18:42 UTC.
Position N 38°26' W 009°07'.
Warning: this ship's position is 9 days out of date.

Length 15 m.

Type: Fishing. MMSI: 263406740.

Date/timePositionNaut miles runAvg speedWind from/ knotsBaromVisibWave heightAir tempDewpointWater temp
2017-Nov-15 16:32N 38°26' W 009°07'0 0.0
2017-Nov-15 16:30N 38°26' W 009°07'0 0.0
2017-Nov-15 16:01N 38°26' W 009°07'0 0.0
2017-Nov-15 15:30N 38°26' W 009°07'0 0.0
2017-Nov-15 15:00N 38°26' W 009°07'  
2017-Nov-07 07:02N 38°26' W 009°07'0 0.0
2017-Nov-07 07:00N 38°26' W 009°07'3 5.3
2017-Nov-07 06:30N 38°25' W 009°09'3 6.6
2017-Nov-07 06:00N 38°24' W 009°14'3 7.1
2017-Nov-07 05:30N 38°26' W 009°17'4 7.5
2017-Nov-07 04:59N 38°29' W 009°21'4 7.9
2017-Nov-07 04:29N 38°32' W 009°23'4 7.8
2017-Nov-07 04:01N 38°36' W 009°26'4 7.5
2017-Nov-07 03:31N 38°39' W 009°28'4 7.4
2017-Nov-07 03:01N 38°42' W 009°31'4 7.2
2017-Nov-07 02:31N 38°46' W 009°32'3 6.8
2017-Nov-07 02:01N 38°49' W 009°32'4 7.1
2017-Nov-07 01:31N 38°52' W 009°32'4 7.3
2017-Nov-07 01:00N 38°56' W 009°31'4 7.3
2017-Nov-07 00:31N 38°60' W 009°30'4 7.4
2017-Nov-07 00:01N 39°03' W 009°29'4 7.6
2017-Nov-06 23:30N 39°07' W 009°29'4 7.6
2017-Nov-06 23:00N 39°11' W 009°27'4 7.6
2017-Nov-06 22:30N 39°14' W 009°26'  

Dump ship's entire track history